createdAt,value
2018-11-02T00:01:46.080Z,4.60
2018-11-02T00:04:15.426Z,4.50
2018-11-02T00:06:44.705Z,4.40
2018-11-02T00:09:28.525Z,4.50
2018-11-02T00:11:57.441Z,4.60
2018-11-02T00:14:26.316Z,4.60
2018-11-02T00:16:55.336Z,4.70
2018-11-02T00:19:29.759Z,4.70
2018-11-02T00:21:59.124Z,4.70
2018-11-02T00:24:28.751Z,4.70
2018-11-02T00:26:58.403Z,5.30
2018-11-02T00:29:27.693Z,4.80
2018-11-02T00:31:56.668Z,4.70
2018-11-02T00:34:25.461Z,4.70
2018-11-02T00:36:54.411Z,4.70
2018-11-02T00:39:23.284Z,4.80
2018-11-02T00:41:52.168Z,4.60
2018-11-02T00:44:21.002Z,4.40
2018-11-02T00:46:49.837Z,4.30
2018-11-02T00:49:18.719Z,4.40
2018-11-02T00:51:47.578Z,4.40
2018-11-02T00:54:16.432Z,4.50
2018-11-02T00:56:45.320Z,4.50
2018-11-02T00:59:14.227Z,4.40
2018-11-02T01:01:43.153Z,4.40
2018-11-02T01:04:12.010Z,4.50
2018-11-02T01:06:40.859Z,4.40
2018-11-02T01:09:10.864Z,4.30
2018-11-02T01:11:39.928Z,4.30
2018-11-02T01:14:08.869Z,4.40
2018-11-02T01:16:37.721Z,4.50
2018-11-02T01:19:06.558Z,4.50
2018-11-02T01:21:35.623Z,4.40
2018-11-02T01:24:04.527Z,4.40
2018-11-02T01:26:33.371Z,4.50
2018-11-02T01:29:02.248Z,4.50
2018-11-02T01:31:31.135Z,4.50
2018-11-02T01:34:00.001Z,4.50
2018-11-02T01:36:28.892Z,4.50
2018-11-02T01:38:57.758Z,4.50
2018-11-02T01:41:26.617Z,4.50
2018-11-02T01:43:55.501Z,4.40
2018-11-02T01:46:24.424Z,4.30
2018-11-02T01:48:53.297Z,4.30
2018-11-02T01:51:22.140Z,4.30
2018-11-02T01:53:51.049Z,4.30
2018-11-02T01:56:20.036Z,4.40
2018-11-02T01:58:48.961Z,4.30
2018-11-02T02:01:17.854Z,4.10
2018-11-02T02:03:46.688Z,4.00
2018-11-02T02:06:15.548Z,4.00
2018-11-02T02:08:44.407Z,3.90
2018-11-02T02:11:13.269Z,4.10
2018-11-02T02:13:42.116Z,4.00
2018-11-02T02:16:10.964Z,4.10
2018-11-02T02:18:39.844Z,4.00
2018-11-02T02:21:08.699Z,4.00
2018-11-02T02:23:37.545Z,4.50
2018-11-02T02:26:06.694Z,4.10
2018-11-02T02:28:35.537Z,4.20
2018-11-02T02:31:04.430Z,4.40
2018-11-02T02:33:33.272Z,4.40
2018-11-02T02:36:02.135Z,4.40
2018-11-02T02:38:31.052Z,4.30
2018-11-02T02:40:59.898Z,4.20
2018-11-02T02:43:28.752Z,4.20
2018-11-02T02:45:57.656Z,4.10
2018-11-02T02:48:26.496Z,4.10
2018-11-02T02:50:55.367Z,4.10
2018-11-02T02:53:24.217Z,3.90
2018-11-02T02:55:53.075Z,3.90
2018-11-02T02:58:21.924Z,4.00
2018-11-02T03:00:50.842Z,3.70
2018-11-02T03:03:19.815Z,3.70
2018-11-02T03:05:48.639Z,3.90
2018-11-02T03:08:17.482Z,3.60
2018-11-02T03:10:46.418Z,3.50
2018-11-02T03:13:15.183Z,3.50
2018-11-02T03:15:44.032Z,3.70
2018-11-02T03:18:12.888Z,3.60
2018-11-02T03:20:41.732Z,3.50
2018-11-02T03:23:10.579Z,3.50
2018-11-02T03:25:39.436Z,3.50
2018-11-02T03:28:08.281Z,3.40
2018-11-02T03:30:37.138Z,3.30
2018-11-02T03:33:05.976Z,3.30
2018-11-02T03:35:34.829Z,3.20
2018-11-02T03:38:03.681Z,3.10
2018-11-02T03:40:32.528Z,3.10
2018-11-02T03:43:01.364Z,3.00
2018-11-02T03:45:30.209Z,2.90
2018-11-02T03:47:59.048Z,2.80
2018-11-02T03:50:28.057Z,2.80
2018-11-02T03:52:56.920Z,2.70
2018-11-02T03:55:25.759Z,2.70
2018-11-02T03:57:54.616Z,2.70
2018-11-02T04:00:23.886Z,2.70
2018-11-02T04:02:52.660Z,2.50
2018-11-02T04:05:21.497Z,2.50
2018-11-02T04:07:50.352Z,2.60
2018-11-02T04:10:19.272Z,2.60
2018-11-02T04:12:48.160Z,2.50
2018-11-02T04:15:17.001Z,2.50
2018-11-02T04:17:45.859Z,2.30
2018-11-02T04:20:14.697Z,2.30
2018-11-02T04:22:43.541Z,2.30
2018-11-02T04:25:12.363Z,2.30
2018-11-02T04:27:41.220Z,2.30
2018-11-02T04:30:10.088Z,2.40
2018-11-02T04:32:38.933Z,2.30
2018-11-02T04:35:08.298Z,2.30
2018-11-02T04:37:37.166Z,2.40
2018-11-02T04:40:06.486Z,2.30
2018-11-02T04:42:35.386Z,2.30
2018-11-02T04:45:04.277Z,2.30
2018-11-02T04:47:33.124Z,2.30
2018-11-02T04:50:01.968Z,2.20
2018-11-02T04:52:30.900Z,2.30
2018-11-02T04:54:59.769Z,2.30
2018-11-02T04:57:28.612Z,2.40
2018-11-02T04:59:57.464Z,2.40
2018-11-02T05:02:26.325Z,2.60
2018-11-02T05:04:55.175Z,2.60
2018-11-02T05:07:24.026Z,2.60
2018-11-02T05:09:52.907Z,2.70
2018-11-02T05:12:21.724Z,2.70
2018-11-02T05:14:50.567Z,2.70
2018-11-02T05:17:19.415Z,2.90
2018-11-02T05:19:48.271Z,2.90
2018-11-02T05:22:17.133Z,2.90
2018-11-02T05:24:45.981Z,2.90
2018-11-02T05:27:14.832Z,2.90
2018-11-02T05:29:43.741Z,2.90
2018-11-02T05:32:12.593Z,3.00
2018-11-02T05:34:41.437Z,3.00
2018-11-02T05:37:10.304Z,3.00
2018-11-02T05:39:39.226Z,3.00
2018-11-02T05:42:08.004Z,2.90
2018-11-02T05:44:36.838Z,2.90
2018-11-02T05:47:05.806Z,2.90
2018-11-02T05:49:34.643Z,2.90
2018-11-02T05:52:03.513Z,2.90
2018-11-02T05:54:32.326Z,3.00
2018-11-02T05:57:01.169Z,3.00
2018-11-02T05:59:30.020Z,3.10
2018-11-02T06:01:58.869Z,3.00
2018-11-02T06:04:27.703Z,3.10
2018-11-02T06:06:56.544Z,3.10
2018-11-02T06:09:25.387Z,3.10
2018-11-02T06:11:54.228Z,3.10
2018-11-02T06:14:23.072Z,3.00
2018-11-02T06:16:52.014Z,3.10
2018-11-02T06:19:20.780Z,3.20
2018-11-02T06:21:49.628Z,3.10
2018-11-02T06:24:18.599Z,3.10
2018-11-02T06:26:47.333Z,3.10
2018-11-02T06:29:16.171Z,3.20
2018-11-02T06:31:45.021Z,3.20
2018-11-02T06:34:13.919Z,3.30
2018-11-02T06:36:42.778Z,3.30
2018-11-02T06:39:11.628Z,3.40
2018-11-02T06:41:40.467Z,3.50
2018-11-02T06:44:09.311Z,3.50
2018-11-02T06:46:38.148Z,3.60
2018-11-02T06:49:07.000Z,3.60
2018-11-02T06:51:35.844Z,3.60
2018-11-02T06:54:05.389Z,3.70
2018-11-02T06:56:34.235Z,3.60
2018-11-02T06:59:03.117Z,3.80
2018-11-02T07:01:32.025Z,3.80
2018-11-02T07:04:00.992Z,3.80
2018-11-02T07:06:29.850Z,3.80
2018-11-02T07:08:58.776Z,3.80
2018-11-02T07:11:28.029Z,3.90
2018-11-02T07:13:57.131Z,3.90
2018-11-02T07:16:26.037Z,4.00
2018-11-02T07:18:54.866Z,4.10
2018-11-02T07:21:23.703Z,4.20
2018-11-02T07:23:52.558Z,4.10
2018-11-02T07:26:21.381Z,4.40
2018-11-02T07:28:50.233Z,4.50
2018-11-02T07:31:19.641Z,4.60
2018-11-02T07:33:48.549Z,4.50
2018-11-02T07:36:17.427Z,4.60
2018-11-02T07:38:46.331Z,4.60
2018-11-02T07:41:15.177Z,4.60
2018-11-02T07:43:44.021Z,4.80
2018-11-02T07:46:12.950Z,4.80
2018-11-02T07:48:42.063Z,4.80
2018-11-02T07:51:10.971Z,4.80
2018-11-02T07:53:39.815Z,4.90
2018-11-02T07:56:08.679Z,5.10
2018-11-02T07:58:37.523Z,5.20
2018-11-02T08:01:06.400Z,5.30
2018-11-02T08:03:35.253Z,5.60
2018-11-02T08:06:04.152Z,5.80
2018-11-02T08:08:33.024Z,5.90
2018-11-02T08:11:01.885Z,6.10
2018-11-02T08:13:30.739Z,6.10
2018-11-02T08:15:59.592Z,6.30
2018-11-02T08:18:28.440Z,6.40
2018-11-02T08:20:57.325Z,6.70
2018-11-02T08:23:26.220Z,6.70
2018-11-02T08:25:55.112Z,6.80
2018-11-02T08:28:24.061Z,7.00
2018-11-02T08:30:53.593Z,7.20
2018-11-02T08:33:22.505Z,7.70
2018-11-02T08:35:51.388Z,7.70
2018-11-02T08:38:20.295Z,7.50
2018-11-02T08:40:49.176Z,7.50
2018-11-02T08:43:18.173Z,7.60
2018-11-02T08:45:47.015Z,7.80
2018-11-02T08:48:15.900Z,8.20
2018-11-02T08:50:44.777Z,8.50
2018-11-02T08:53:13.615Z,8.70
2018-11-02T08:55:42.465Z,8.80
2018-11-02T08:58:11.538Z,9.10
2018-11-02T09:00:40.352Z,10.00
2018-11-02T09:03:09.207Z,11.10
2018-11-02T09:05:38.152Z,11.00
2018-11-02T09:08:07.021Z,11.70
2018-11-02T09:10:35.874Z,11.00
2018-11-02T09:13:05.005Z,10.40
2018-11-02T09:15:33.960Z,10.10
2018-11-02T09:18:03.105Z,10.50
2018-11-02T09:20:31.964Z,11.00
2018-11-02T09:23:00.807Z,11.50
2018-11-02T09:25:29.658Z,12.00
2018-11-02T09:27:58.565Z,11.30
2018-11-02T09:30:27.498Z,11.00
2018-11-02T09:32:56.340Z,11.30
2018-11-02T09:35:25.217Z,11.20
2018-11-02T09:37:54.350Z,10.70
2018-11-02T09:40:23.280Z,10.40
2018-11-02T09:42:52.353Z,10.10
2018-11-02T09:45:33.164Z,10.00
2018-11-02T09:48:03.173Z,9.80
2018-11-02T09:50:32.079Z,10.20
2018-11-02T09:53:16.612Z,10.30
2018-11-02T09:56:01.454Z,10.40
2018-11-02T09:58:33.852Z,10.30
2018-11-02T10:01:04.707Z,10.90
2018-11-02T10:03:34.532Z,11.10
2018-11-02T10:06:04.088Z,11.10
2018-11-02T10:08:33.937Z,11.10
2018-11-02T10:11:03.323Z,11.40
2018-11-02T10:13:33.432Z,11.70
2018-11-02T10:16:02.694Z,11.40
2018-11-02T10:18:32.333Z,11.20
2018-11-02T10:21:01.949Z,11.20
2018-11-02T10:23:32.214Z,11.50
2018-11-02T10:26:01.237Z,11.80
2018-11-02T10:28:30.900Z,12.20
2018-11-02T10:30:59.879Z,12.60
2018-11-02T10:33:29.544Z,12.40
2018-11-02T10:35:58.923Z,13.00
2018-11-02T10:38:29.712Z,13.70
2018-11-02T10:41:00.029Z,14.10
2018-11-02T10:43:33.349Z,14.00
2018-11-02T10:46:02.904Z,14.00
2018-11-02T10:48:33.171Z,14.00
2018-11-02T10:51:02.615Z,14.30
2018-11-02T10:53:31.879Z,13.80
2018-11-02T10:56:01.944Z,13.50
2018-11-02T10:58:31.862Z,13.10
2018-11-02T11:01:07.691Z,13.00
2018-11-02T11:03:36.488Z,13.40
2018-11-02T11:06:06.907Z,13.00
2018-11-02T11:08:36.595Z,12.90
2018-11-02T11:11:06.672Z,13.10
2018-11-02T11:13:35.928Z,12.80
2018-11-02T11:16:08.139Z,12.80
2018-11-02T11:18:37.220Z,13.00
2018-11-02T11:21:07.398Z,12.60
2018-11-02T11:23:37.612Z,12.40
2018-11-02T11:26:07.405Z,12.40
2018-11-02T11:28:39.816Z,12.10
2018-11-02T11:31:08.720Z,12.10
2018-11-02T11:33:37.767Z,11.90
2018-11-02T11:36:07.171Z,11.60
2018-11-02T11:38:36.605Z,11.70
2018-11-02T11:41:05.524Z,11.50
2018-11-02T11:43:34.428Z,11.80
2018-11-02T11:46:03.268Z,11.80
2018-11-02T11:48:32.213Z,11.80
2018-11-02T11:51:01.108Z,11.90
2018-11-02T11:53:30.205Z,11.80
2018-11-02T11:55:59.242Z,11.90
2018-11-02T11:58:28.427Z,11.90
2018-11-02T12:00:57.725Z,11.70
2018-11-02T12:03:26.776Z,11.60
2018-11-02T12:05:55.837Z,11.60
2018-11-02T12:08:24.796Z,11.50
2018-11-02T12:14:22.615Z,11.60
2018-11-02T12:25:30.524Z,11.60
2018-11-02T12:43:29.211Z,11.90
2018-11-02T12:45:59.375Z,12.00
2018-11-02T12:48:28.322Z,12.10
2018-11-02T12:50:57.259Z,12.10
2018-11-02T12:53:26.130Z,11.90
2018-11-02T12:55:54.972Z,12.20
2018-11-02T12:58:23.820Z,12.00
2018-11-02T13:00:52.676Z,11.90
2018-11-02T13:03:21.545Z,12.00
2018-11-02T13:05:50.420Z,11.50
2018-11-02T13:08:19.268Z,11.50
2018-11-02T13:10:48.129Z,11.90
2018-11-02T13:13:16.977Z,11.90
2018-11-02T13:15:45.937Z,11.30
2018-11-02T13:18:17.499Z,11.20
2018-11-02T13:20:46.283Z,11.50
2018-11-02T13:23:15.141Z,11.70
2018-11-02T13:25:44.073Z,11.90
2018-11-02T13:28:12.844Z,12.20
2018-11-02T13:30:41.787Z,12.10
2018-11-02T13:33:10.548Z,12.20
2018-11-02T13:35:39.495Z,12.30
2018-11-02T13:38:08.395Z,12.40
2018-11-02T13:40:37.246Z,12.40
2018-11-02T13:43:06.247Z,12.40
2018-11-02T13:45:35.000Z,12.30
2018-11-02T13:48:03.847Z,12.20
2018-11-02T13:50:32.727Z,12.30
2018-11-02T13:53:01.548Z,12.10
2018-11-02T13:55:30.392Z,12.10
2018-11-02T13:57:59.252Z,12.20
2018-11-02T14:00:28.113Z,12.10
2018-11-02T14:02:56.975Z,11.90
2018-11-02T14:05:25.828Z,11.60
2018-11-02T14:07:54.703Z,11.40
2018-11-02T14:10:23.557Z,11.40
2018-11-02T14:12:52.429Z,11.30
2018-11-02T14:15:21.288Z,11.30
2018-11-02T14:17:50.227Z,11.30
2018-11-02T14:20:19.168Z,11.20
2018-11-02T14:22:48.075Z,11.30
2018-11-02T14:25:17.620Z,11.20
2018-11-02T14:27:46.495Z,11.20
2018-11-02T14:30:16.655Z,11.20
2018-11-02T14:32:46.316Z,11.10
2018-11-02T14:35:15.172Z,11.10
2018-11-02T14:37:44.048Z,11.10
2018-11-02T14:40:12.926Z,11.10
2018-11-02T14:42:42.292Z,11.10
2018-11-02T14:45:13.533Z,11.00
2018-11-02T14:47:42.893Z,11.00
2018-11-02T14:50:12.140Z,11.00
2018-11-02T14:52:41.032Z,10.90
2018-11-02T14:55:10.384Z,10.90
2018-11-02T14:57:39.579Z,10.80
2018-11-02T15:00:09.905Z,10.80
2018-11-02T15:02:39.015Z,10.60
2018-11-02T15:05:09.144Z,10.50
2018-11-02T15:07:38.055Z,10.50
2018-11-02T15:10:07.058Z,10.50
2018-11-02T15:12:36.143Z,10.50
2018-11-02T15:15:05.532Z,10.40
2018-11-02T15:17:34.483Z,10.40
2018-11-02T15:20:03.379Z,10.60
2018-11-02T15:22:32.267Z,10.50
2018-11-02T15:25:01.096Z,10.50
2018-11-02T15:27:33.500Z,10.40
2018-11-02T15:30:03.072Z,10.30
2018-11-02T15:32:32.272Z,10.30
2018-11-02T15:35:01.289Z,10.30
2018-11-02T15:37:30.165Z,10.20
2018-11-02T15:39:59.136Z,10.20
2018-11-02T15:42:27.995Z,10.20
2018-11-02T15:44:56.964Z,10.10
2018-11-02T15:47:25.833Z,10.10
2018-11-02T15:49:56.398Z,10.00
2018-11-02T15:52:25.261Z,10.00
2018-11-02T15:54:54.185Z,9.90
2018-11-02T15:57:23.049Z,9.80
2018-11-02T15:59:51.913Z,9.70
2018-11-02T16:02:20.819Z,9.60
2018-11-02T16:04:49.808Z,9.60
2018-11-02T16:07:19.528Z,9.60
2018-11-02T16:09:48.455Z,9.50
2018-11-02T16:12:17.383Z,9.40
2018-11-02T16:14:46.245Z,9.40
2018-11-02T16:17:15.159Z,9.30
2018-11-02T16:19:44.108Z,9.30
2018-11-02T16:22:12.974Z,9.30
2018-11-02T16:24:41.859Z,9.20
2018-11-02T16:27:10.798Z,9.20
2018-11-02T16:29:39.779Z,9.20
2018-11-02T16:32:08.667Z,9.20
2018-11-02T16:34:37.574Z,9.10
2018-11-02T16:37:06.457Z,9.10
2018-11-02T16:39:35.424Z,9.10
2018-11-02T16:42:04.319Z,9.00
2018-11-02T16:44:33.555Z,9.00
2018-11-02T16:47:02.432Z,9.00
2018-11-02T16:49:31.575Z,9.00
2018-11-02T16:52:00.476Z,8.80
2018-11-02T16:54:29.547Z,8.80
2018-11-02T16:56:59.454Z,8.90
2018-11-02T16:59:28.516Z,8.80
2018-11-02T17:01:58.704Z,8.80
2018-11-02T17:04:27.892Z,8.80
2018-11-02T17:06:56.869Z,8.70
2018-11-02T17:09:25.696Z,8.90
2018-11-02T17:11:54.569Z,8.70
2018-11-02T17:14:23.435Z,8.70
2018-11-02T17:16:52.380Z,8.70
2018-11-02T17:19:21.249Z,8.70
2018-11-02T17:21:50.123Z,8.70
2018-11-02T17:24:19.146Z,8.60
2018-11-02T17:26:48.568Z,8.60
2018-11-02T17:29:17.457Z,8.50
2018-11-02T17:31:46.340Z,8.50
2018-11-02T17:34:21.909Z,8.50
2018-11-02T17:36:50.797Z,8.50
2018-11-02T17:39:19.681Z,8.60
2018-11-02T17:41:48.607Z,8.00
2018-11-02T17:44:17.616Z,8.50
2018-11-02T17:46:46.608Z,8.70
2018-11-02T17:49:15.555Z,8.70
2018-11-02T17:51:44.589Z,8.70
2018-11-02T17:54:13.539Z,8.80
2018-11-02T17:56:42.407Z,8.80
2018-11-02T17:59:11.323Z,8.80
2018-11-02T18:01:40.206Z,8.80
2018-11-02T18:04:09.130Z,8.80
2018-11-02T18:06:37.985Z,8.70
2018-11-02T18:09:08.892Z,8.70
2018-11-02T18:11:37.811Z,8.60
2018-11-02T18:14:06.912Z,8.70
2018-11-02T18:16:35.771Z,8.60
2018-11-02T18:19:04.795Z,8.40
2018-11-02T18:21:33.670Z,8.60
2018-11-02T18:24:02.543Z,8.40
2018-11-02T18:26:31.467Z,8.60
2018-11-02T18:29:00.453Z,8.60
2018-11-02T18:31:29.303Z,8.60
2018-11-02T18:33:58.301Z,8.70
2018-11-02T18:36:27.209Z,8.70
2018-11-02T18:38:56.193Z,8.70
2018-11-02T18:41:25.125Z,8.80
2018-11-02T18:43:54.036Z,8.70
2018-11-02T18:46:22.908Z,8.70
2018-11-02T18:48:51.792Z,8.70
2018-11-02T18:51:20.647Z,8.70
2018-11-02T18:53:49.607Z,8.70
2018-11-02T18:56:18.480Z,8.60
2018-11-02T18:58:47.396Z,8.60
2018-11-02T19:01:16.257Z,8.70
2018-11-02T19:03:45.124Z,8.60
2018-11-02T19:06:14.018Z,8.60
2018-11-02T19:08:42.920Z,8.50
2018-11-02T19:11:11.862Z,8.50
2018-11-02T19:13:40.815Z,8.40
2018-11-02T19:16:09.723Z,8.40
2018-11-02T19:18:41.935Z,8.30
2018-11-02T19:21:11.665Z,8.30
2018-11-02T19:23:41.660Z,8.30
2018-11-02T19:26:10.559Z,8.30
2018-11-02T19:28:39.431Z,8.30
2018-11-02T19:31:08.365Z,8.30
2018-11-02T19:33:37.253Z,8.30
2018-11-02T19:36:06.159Z,8.20
2018-11-02T19:38:35.142Z,8.20
2018-11-02T19:41:06.759Z,8.10
2018-11-02T19:43:35.639Z,8.10
2018-11-02T19:46:05.044Z,8.10
2018-11-02T19:48:33.947Z,8.10
2018-11-02T19:51:02.820Z,8.10
2018-11-02T19:53:31.817Z,8.10
2018-11-02T19:56:00.642Z,8.10
2018-11-02T19:58:29.517Z,8.10
2018-11-02T20:00:59.640Z,8.50
2018-11-02T20:03:28.552Z,8.10
2018-11-02T20:05:57.412Z,8.00
2018-11-02T20:08:26.442Z,8.00
2018-11-02T20:10:55.429Z,7.90
2018-11-02T20:13:24.289Z,7.90
2018-11-02T20:15:53.192Z,7.90
2018-11-02T20:18:22.068Z,7.90
2018-11-02T20:20:53.082Z,7.90
2018-11-02T20:23:23.172Z,7.90
2018-11-02T20:25:52.287Z,7.90
2018-11-02T20:28:21.172Z,7.80
2018-11-02T20:30:50.125Z,7.80
2018-11-02T20:33:18.977Z,7.80
2018-11-02T20:35:47.884Z,7.90
2018-11-02T20:38:16.765Z,7.80
2018-11-02T20:40:45.676Z,7.80
2018-11-02T20:43:14.545Z,7.90
2018-11-02T20:45:43.431Z,7.90
2018-11-02T20:48:12.462Z,8.00
2018-11-02T20:50:41.371Z,8.20
2018-11-02T20:53:10.248Z,8.20
2018-11-02T20:55:39.118Z,8.30
2018-11-02T20:58:08.005Z,8.20
2018-11-02T21:00:36.851Z,8.20
2018-11-02T21:03:05.842Z,8.20
2018-11-02T21:05:34.887Z,8.10
2018-11-02T21:08:03.778Z,8.00
2018-11-02T21:10:32.672Z,8.10
2018-11-02T21:13:01.543Z,8.10
2018-11-02T21:15:30.422Z,8.10
2018-11-02T21:17:59.410Z,8.20
2018-11-02T21:20:28.307Z,8.00
2018-11-02T21:22:57.135Z,8.00
2018-11-02T21:25:26.016Z,8.00
2018-11-02T21:27:54.871Z,7.90
2018-11-02T21:30:25.007Z,7.90
2018-11-02T21:32:54.921Z,8.00
2018-11-02T21:35:24.220Z,8.00
2018-11-02T21:37:53.112Z,8.00
2018-11-02T21:40:24.462Z,8.10
2018-11-02T21:42:53.402Z,8.10
2018-11-02T21:45:23.370Z,8.00
2018-11-02T21:47:52.326Z,8.10
2018-11-02T21:50:21.197Z,8.00
2018-11-02T21:52:50.111Z,8.10
2018-11-02T21:55:19.120Z,8.10
2018-11-02T21:57:48.011Z,8.20
2018-11-02T22:00:18.494Z,8.30
2018-11-02T22:02:47.678Z,8.30
2018-11-02T22:05:16.618Z,8.30
2018-11-02T22:07:46.906Z,8.30
2018-11-02T22:10:16.211Z,8.30
2018-11-02T22:12:45.545Z,8.40
2018-11-02T22:15:14.661Z,8.30
2018-11-02T22:17:43.550Z,8.20
2018-11-02T22:20:13.604Z,8.20
2018-11-02T22:22:42.511Z,8.20
2018-11-02T22:25:12.522Z,8.20
2018-11-02T22:27:43.112Z,8.10
2018-11-02T22:30:14.736Z,8.20
2018-11-02T22:32:43.696Z,8.00
2018-11-02T22:35:13.338Z,8.10
2018-11-02T22:37:42.622Z,8.10
2018-11-02T22:40:12.399Z,8.20
2018-11-02T22:42:42.176Z,8.10
2018-11-02T22:45:12.496Z,8.20
2018-11-02T22:47:42.075Z,8.20
2018-11-02T22:50:10.972Z,8.10
2018-11-02T22:52:39.835Z,8.10
2018-11-02T22:55:09.685Z,8.00
2018-11-02T22:57:38.656Z,8.10
2018-11-02T23:00:14.594Z,8.20
2018-11-02T23:02:44.260Z,8.20
2018-11-02T23:05:13.357Z,8.00
2018-11-02T23:07:42.762Z,8.00
2018-11-02T23:10:11.628Z,7.90
2018-11-02T23:12:40.869Z,7.90
2018-11-02T23:15:10.466Z,7.90
2018-11-02T23:17:39.353Z,8.00
2018-11-02T23:20:10.392Z,8.00
2018-11-02T23:22:39.266Z,7.90
2018-11-02T23:25:09.123Z,7.90
2018-11-02T23:27:38.041Z,8.00
2018-11-02T23:30:07.506Z,8.10
2018-11-02T23:32:36.588Z,8.10
2018-11-02T23:35:05.739Z,8.20
2018-11-02T23:37:34.738Z,8.20
2018-11-02T23:40:03.624Z,8.30
2018-11-02T23:42:32.558Z,8.20
2018-11-02T23:45:01.560Z,8.10
2018-11-02T23:47:30.309Z,8.20
2018-11-02T23:49:59.173Z,8.30
2018-11-02T23:52:28.040Z,8.20
2018-11-02T23:54:56.896Z,8.30
2018-11-02T23:57:25.767Z,8.40
2018-11-02T23:59:54.628Z,8.20
